sensor_id;sensor_type;location;lat;lon;timestamp;P1;durP1;ratioP1;P2;durP2;ratioP2
11651;SDS011;5882;48.818;9.114;2022-10-16T00:01:26;1.38;;;1.27;;
11651;SDS011;5882;48.818;9.114;2022-10-16T00:03:52;1.77;;;1.38;;
11651;SDS011;5882;48.818;9.114;2022-10-16T00:06:20;1.10;;;1.00;;
11651;SDS011;5882;48.818;9.114;2022-10-16T00:08:47;1.48;;;1.05;;
11651;SDS011;5882;48.818;9.114;2022-10-16T00:11:15;1.00;;;1.00;;
11651;SDS011;5882;48.818;9.114;2022-10-16T00:13:42;1.10;;;1.10;;
11651;SDS011;5882;48.818;9.114;2022-10-16T00:16:10;1.15;;;1.05;;
11651;SDS011;5882;48.818;9.114;2022-10-16T00:18:37;1.95;;;1.20;;
11651;SDS011;5882;48.818;9.114;2022-10-16T00:21:05;1.20;;;1.10;;
11651;SDS011;5882;48.818;9.114;2022-10-16T00:23:32;1.10;;;1.10;;
11651;SDS011;5882;48.818;9.114;2022-10-16T00:25:59;1.25;;;1.15;;
11651;SDS011;5882;48.818;9.114;2022-10-16T00:28:26;1.10;;;1.08;;
11651;SDS011;5882;48.818;9.114;2022-10-16T00:30:52;1.15;;;1.15;;
11651;SDS011;5882;48.818;9.114;2022-10-16T00:33:21;1.30;;;1.20;;
11651;SDS011;5882;48.818;9.114;2022-10-16T00:35:47;1.20;;;1.10;;
11651;SDS011;5882;48.818;9.114;2022-10-16T00:38:14;1.08;;;1.08;;
11651;SDS011;5882;48.818;9.114;2022-10-16T00:40:40;1.23;;;1.10;;
11651;SDS011;5882;48.818;9.114;2022-10-16T00:43:11;1.30;;;1.20;;
11651;SDS011;5882;48.818;9.114;2022-10-16T00:45:38;1.25;;;1.15;;
11651;SDS011;5882;48.818;9.114;2022-10-16T00:48:06;1.20;;;1.10;;
11651;SDS011;5882;48.818;9.114;2022-10-16T00:50:38;1.38;;;0.90;;
11651;SDS011;5882;48.818;9.114;2022-10-16T00:53:08;1.10;;;1.10;;
11651;SDS011;5882;48.818;9.114;2022-10-16T00:55:34;1.27;;;1.17;;
11651;SDS011;5882;48.818;9.114;2022-10-16T00:58:02;1.10;;;1.10;;
11651;SDS011;5882;48.818;9.114;2022-10-16T01:00:28;1.20;;;1.10;;
11651;SDS011;5882;48.818;9.114;2022-10-16T01:02:55;1.00;;;1.00;;
11651;SDS011;5882;48.818;9.114;2022-10-16T01:05:22;1.13;;;1.13;;
11651;SDS011;5882;48.818;9.114;2022-10-16T01:07:53;1.10;;;1.10;;
11651;SDS011;5882;48.818;9.114;2022-10-16T01:10:25;1.40;;;1.30;;
11651;SDS011;5882;48.818;9.114;2022-10-16T01:12:54;1.00;;;1.00;;
11651;SDS011;5882;48.818;9.114;2022-10-16T01:15:25;1.20;;;1.10;;
11651;SDS011;5882;48.818;9.114;2022-10-16T01:17:53;1.10;;;1.10;;
11651;SDS011;5882;48.818;9.114;2022-10-16T01:20:24;1.10;;;1.00;;
11651;SDS011;5882;48.818;9.114;2022-10-16T01:23:01;1.27;;;1.17;;
11651;SDS011;5882;48.818;9.114;2022-10-16T01:25:30;1.00;;;1.00;;
11651;SDS011;5882;48.818;9.114;2022-10-16T01:28:04;1.10;;;1.10;;
11651;SDS011;5882;48.818;9.114;2022-10-16T01:30:32;1.17;;;1.08;;
11651;SDS011;5882;48.818;9.114;2022-10-16T01:33:01;1.10;;;1.10;;
11651;SDS011;5882;48.818;9.114;2022-10-16T01:35:29;0.90;;;0.90;;
11651;SDS011;5882;48.818;9.114;2022-10-16T01:37:59;1.30;;;1.20;;
11651;SDS011;5882;48.818;9.114;2022-10-16T01:40:26;1.02;;;1.02;;
11651;SDS011;5882;48.818;9.114;2022-10-16T01:42:54;1.00;;;1.00;;
11651;SDS011;5882;48.818;9.114;2022-10-16T01:45:23;1.30;;;1.20;;
11651;SDS011;5882;48.818;9.114;2022-10-16T01:47:50;1.00;;;1.00;;
11651;SDS011;5882;48.818;9.114;2022-10-16T01:50:18;1.30;;;1.20;;
11651;SDS011;5882;48.818;9.114;2022-10-16T01:52:45;1.02;;;1.00;;
11651;SDS011;5882;48.818;9.114;2022-10-16T01:55:14;1.30;;;1.20;;
11651;SDS011;5882;48.818;9.114;2022-10-16T01:57:42;1.00;;;0.90;;
11651;SDS011;5882;48.818;9.114;2022-10-16T02:00:10;1.00;;;1.00;;
11651;SDS011;5882;48.818;9.114;2022-10-16T02:02:39;0.93;;;0.90;;
11651;SDS011;5882;48.818;9.114;2022-10-16T02:05:09;1.40;;;1.17;;
11651;SDS011;5882;48.818;9.114;2022-10-16T02:07:37;1.00;;;1.00;;
11651;SDS011;5882;48.818;9.114;2022-10-16T02:10:03;1.00;;;1.00;;
11651;SDS011;5882;48.818;9.114;2022-10-16T02:12:33;0.90;;;0.90;;
11651;SDS011;5882;48.818;9.114;2022-10-16T02:15:01;1.10;;;1.00;;
11651;SDS011;5882;48.818;9.114;2022-10-16T02:17:28;1.33;;;1.15;;
11651;SDS011;5882;48.818;9.114;2022-10-16T02:19:56;1.00;;;1.00;;
11651;SDS011;5882;48.818;9.114;2022-10-16T02:22:26;1.10;;;1.02;;
11651;SDS011;5882;48.818;9.114;2022-10-16T02:24:54;1.15;;;1.05;;
11651;SDS011;5882;48.818;9.114;2022-10-16T02:27:24;1.10;;;1.00;;
11651;SDS011;5882;48.818;9.114;2022-10-16T02:29:52;1.30;;;1.20;;
11651;SDS011;5882;48.818;9.114;2022-10-16T02:32:23;1.10;;;1.10;;
11651;SDS011;5882;48.818;9.114;2022-10-16T02:34:50;1.00;;;1.00;;
11651;SDS011;5882;48.818;9.114;2022-10-16T02:37:19;0.98;;;0.95;;
11651;SDS011;5882;48.818;9.114;2022-10-16T02:39:45;1.20;;;1.10;;
11651;SDS011;5882;48.818;9.114;2022-10-16T02:42:12;1.00;;;1.00;;
11651;SDS011;5882;48.818;9.114;2022-10-16T02:44:38;1.00;;;1.00;;
11651;SDS011;5882;48.818;9.114;2022-10-16T02:47:05;0.90;;;0.90;;
11651;SDS011;5882;48.818;9.114;2022-10-16T02:49:31;1.15;;;1.13;;
11651;SDS011;5882;48.818;9.114;2022-10-16T02:51:58;3.33;;;1.38;;
11651;SDS011;5882;48.818;9.114;2022-10-16T02:54:25;1.02;;;1.02;;
11651;SDS011;5882;48.818;9.114;2022-10-16T02:56:52;1.50;;;1.10;;
11651;SDS011;5882;48.818;9.114;2022-10-16T02:59:18;0.93;;;0.93;;
11651;SDS011;5882;48.818;9.114;2022-10-16T03:01:45;1.10;;;1.10;;
11651;SDS011;5882;48.818;9.114;2022-10-16T03:04:11;1.20;;;1.10;;
11651;SDS011;5882;48.818;9.114;2022-10-16T03:06:38;1.30;;;1.20;;
11651;SDS011;5882;48.818;9.114;2022-10-16T03:09:07;1.02;;;1.00;;
11651;SDS011;5882;48.818;9.114;2022-10-16T03:11:34;1.00;;;1.00;;
11651;SDS011;5882;48.818;9.114;2022-10-16T03:14:01;1.13;;;1.02;;
11651;SDS011;5882;48.818;9.114;2022-10-16T03:16:27;1.00;;;1.00;;
11651;SDS011;5882;48.818;9.114;2022-10-16T03:18:54;1.00;;;1.00;;
11651;SDS011;5882;48.818;9.114;2022-10-16T03:21:20;1.20;;;1.10;;
11651;SDS011;5882;48.818;9.114;2022-10-16T03:23:47;1.13;;;1.08;;
11651;SDS011;5882;48.818;9.114;2022-10-16T03:26:14;1.40;;;1.20;;
11651;SDS011;5882;48.818;9.114;2022-10-16T03:28:41;1.30;;;1.20;;
11651;SDS011;5882;48.818;9.114;2022-10-16T03:31:08;1.05;;;1.05;;
11651;SDS011;5882;48.818;9.114;2022-10-16T03:33:34;1.02;;;1.02;;
11651;SDS011;5882;48.818;9.114;2022-10-16T03:36:01;1.00;;;1.00;;
11651;SDS011;5882;48.818;9.114;2022-10-16T03:38:27;0.95;;;0.95;;
11651;SDS011;5882;48.818;9.114;2022-10-16T03:40:54;1.40;;;1.30;;
11651;SDS011;5882;48.818;9.114;2022-10-16T03:43:21;0.90;;;0.90;;
11651;SDS011;5882;48.818;9.114;2022-10-16T03:45:49;1.17;;;1.10;;
11651;SDS011;5882;48.818;9.114;2022-10-16T03:48:16;1.02;;;1.02;;
11651;SDS011;5882;48.818;9.114;2022-10-16T03:50:42;1.00;;;1.00;;
11651;SDS011;5882;48.818;9.114;2022-10-16T03:53:08;1.27;;;1.17;;
11651;SDS011;5882;48.818;9.114;2022-10-16T03:55:35;1.20;;;1.20;;
11651;SDS011;5882;48.818;9.114;2022-10-16T03:58:01;1.02;;;1.02;;
11651;SDS011;5882;48.818;9.114;2022-10-16T04:00:28;1.23;;;1.13;;
11651;SDS011;5882;48.818;9.114;2022-10-16T04:02:56;1.65;;;1.30;;
11651;SDS011;5882;48.818;9.114;2022-10-16T04:05:22;1.05;;;1.00;;
11651;SDS011;5882;48.818;9.114;2022-10-16T04:07:49;1.08;;;1.00;;
11651;SDS011;5882;48.818;9.114;2022-10-16T04:10:15;1.02;;;1.02;;
11651;SDS011;5882;48.818;9.114;2022-10-16T04:12:42;1.00;;;1.00;;
11651;SDS011;5882;48.818;9.114;2022-10-16T04:15:08;1.25;;;1.17;;
11651;SDS011;5882;48.818;9.114;2022-10-16T04:17:35;0.95;;;0.95;;
11651;SDS011;5882;48.818;9.114;2022-10-16T04:20:04;1.00;;;1.00;;
11651;SDS011;5882;48.818;9.114;2022-10-16T04:22:30;1.08;;;1.08;;
11651;SDS011;5882;48.818;9.114;2022-10-16T04:24:57;1.10;;;1.10;;
11651;SDS011;5882;48.818;9.114;2022-10-16T04:27:23;1.10;;;1.00;;
11651;SDS011;5882;48.818;9.114;2022-10-16T04:29:50;1.10;;;1.10;;
11651;SDS011;5882;48.818;9.114;2022-10-16T04:32:16;1.10;;;1.10;;
11651;SDS011;5882;48.818;9.114;2022-10-16T04:34:43;1.10;;;1.00;;
11651;SDS011;5882;48.818;9.114;2022-10-16T04:37:11;1.00;;;1.00;;
11651;SDS011;5882;48.818;9.114;2022-10-16T04:39:37;0.93;;;0.93;;
11651;SDS011;5882;48.818;9.114;2022-10-16T04:42:04;1.30;;;1.20;;
11651;SDS011;5882;48.818;9.114;2022-10-16T04:44:30;1.00;;;1.00;;
11651;SDS011;5882;48.818;9.114;2022-10-16T04:46:56;1.40;;;1.30;;
11651;SDS011;5882;48.818;9.114;2022-10-16T04:49:23;2.75;;;1.50;;
11651;SDS011;5882;48.818;9.114;2022-10-16T04:51:50;1.40;;;1.30;;
11651;SDS011;5882;48.818;9.114;2022-10-16T04:54:18;1.13;;;1.00;;
11651;SDS011;5882;48.818;9.114;2022-10-16T04:56:44;1.50;;;1.40;;
11651;SDS011;5882;48.818;9.114;2022-10-16T04:59:13;1.00;;;1.00;;
11651;SDS011;5882;48.818;9.114;2022-10-16T05:01:39;1.48;;;1.38;;
11651;SDS011;5882;48.818;9.114;2022-10-16T05:04:06;1.40;;;1.30;;
11651;SDS011;5882;48.818;9.114;2022-10-16T05:06:32;1.00;;;1.00;;
11651;SDS011;5882;48.818;9.114;2022-10-16T05:08:58;1.00;;;1.00;;
11651;SDS011;5882;48.818;9.114;2022-10-16T05:11:26;1.40;;;1.30;;
11651;SDS011;5882;48.818;9.114;2022-10-16T05:13:53;1.40;;;1.30;;
11651;SDS011;5882;48.818;9.114;2022-10-16T05:16:19;1.30;;;1.20;;
11651;SDS011;5882;48.818;9.114;2022-10-16T05:18:46;1.08;;;1.00;;
11651;SDS011;5882;48.818;9.114;2022-10-16T05:21:12;1.15;;;1.10;;
11651;SDS011;5882;48.818;9.114;2022-10-16T05:23:38;1.15;;;1.15;;
11651;SDS011;5882;48.818;9.114;2022-10-16T05:26:05;1.55;;;1.35;;
11651;SDS011;5882;48.818;9.114;2022-10-16T05:28:34;1.10;;;1.10;;
11651;SDS011;5882;48.818;9.114;2022-10-16T05:31:03;1.10;;;1.10;;
11651;SDS011;5882;48.818;9.114;2022-10-16T05:33:30;1.13;;;1.02;;
11651;SDS011;5882;48.818;9.114;2022-10-16T05:35:56;1.20;;;1.20;;
11651;SDS011;5882;48.818;9.114;2022-10-16T05:38:23;1.30;;;1.20;;
11651;SDS011;5882;48.818;9.114;2022-10-16T05:40:52;1.67;;;1.30;;
11651;SDS011;5882;48.818;9.114;2022-10-16T05:43:19;1.15;;;1.08;;
11651;SDS011;5882;48.818;9.114;2022-10-16T05:45:54;1.00;;;1.00;;
11651;SDS011;5882;48.818;9.114;2022-10-16T05:48:21;1.25;;;1.13;;
11651;SDS011;5882;48.818;9.114;2022-10-16T05:50:48;1.58;;;1.17;;
11651;SDS011;5882;48.818;9.114;2022-10-16T05:53:14;1.17;;;1.17;;
11651;SDS011;5882;48.818;9.114;2022-10-16T05:55:41;1.20;;;1.10;;
11651;SDS011;5882;48.818;9.114;2022-10-16T05:58:07;1.27;;;1.17;;
11651;SDS011;5882;48.818;9.114;2022-10-16T06:00:34;1.40;;;1.30;;
11651;SDS011;5882;48.818;9.114;2022-10-16T06:03:01;1.10;;;1.10;;
11651;SDS011;5882;48.818;9.114;2022-10-16T06:05:28;1.10;;;1.10;;
11651;SDS011;5882;48.818;9.114;2022-10-16T06:07:54;1.02;;;1.02;;
11651;SDS011;5882;48.818;9.114;2022-10-16T06:10:21;4.30;;;1.60;;
11651;SDS011;5882;48.818;9.114;2022-10-16T06:12:48;1.30;;;1.20;;
11651;SDS011;5882;48.818;9.114;2022-10-16T06:15:14;1.77;;;1.45;;
11651;SDS011;5882;48.818;9.114;2022-10-16T06:17:41;1.20;;;1.10;;
11651;SDS011;5882;48.818;9.114;2022-10-16T06:20:09;2.05;;;1.33;;
11651;SDS011;5882;48.818;9.114;2022-10-16T06:22:38;1.00;;;1.00;;
11651;SDS011;5882;48.818;9.114;2022-10-16T06:25:04;1.10;;;1.10;;
11651;SDS011;5882;48.818;9.114;2022-10-16T06:27:31;1.48;;;1.38;;
11651;SDS011;5882;48.818;9.114;2022-10-16T06:29:57;1.23;;;1.20;;
11651;SDS011;5882;48.818;9.114;2022-10-16T06:32:24;2.88;;;1.20;;
11651;SDS011;5882;48.818;9.114;2022-10-16T06:34:50;1.20;;;1.20;;
11651;SDS011;5882;48.818;9.114;2022-10-16T06:37:18;1.23;;;1.15;;
11651;SDS011;5882;48.818;9.114;2022-10-16T06:39:45;3.30;;;1.15;;
11651;SDS011;5882;48.818;9.114;2022-10-16T06:42:11;1.08;;;1.00;;
11651;SDS011;5882;48.818;9.114;2022-10-16T06:44:38;1.30;;;1.20;;
11651;SDS011;5882;48.818;9.114;2022-10-16T06:47:04;1.10;;;1.10;;
11651;SDS011;5882;48.818;9.114;2022-10-16T06:49:33;1.30;;;1.20;;
11651;SDS011;5882;48.818;9.114;2022-10-16T06:52:00;1.13;;;1.13;;
11651;SDS011;5882;48.818;9.114;2022-10-16T06:54:28;2.00;;;1.90;;
11651;SDS011;5882;48.818;9.114;2022-10-16T06:56:54;1.58;;;1.48;;
11651;SDS011;5882;48.818;9.114;2022-10-16T06:59:21;1.40;;;1.30;;
11651;SDS011;5882;48.818;9.114;2022-10-16T07:01:47;1.58;;;1.45;;
11651;SDS011;5882;48.818;9.114;2022-10-16T07:04:14;1.40;;;1.30;;
11651;SDS011;5882;48.818;9.114;2022-10-16T07:06:40;1.30;;;1.20;;
11651;SDS011;5882;48.818;9.114;2022-10-16T07:09:08;1.40;;;1.30;;
11651;SDS011;5882;48.818;9.114;2022-10-16T07:11:39;1.55;;;1.45;;
11651;SDS011;5882;48.818;9.114;2022-10-16T07:14:09;1.40;;;1.30;;
11651;SDS011;5882;48.818;9.114;2022-10-16T07:16:38;1.70;;;1.50;;
11651;SDS011;5882;48.818;9.114;2022-10-16T07:19:05;1.55;;;1.20;;
11651;SDS011;5882;48.818;9.114;2022-10-16T07:21:32;1.30;;;1.20;;
11651;SDS011;5882;48.818;9.114;2022-10-16T07:24:00;1.60;;;1.50;;
11651;SDS011;5882;48.818;9.114;2022-10-16T07:26:28;1.30;;;1.20;;
11651;SDS011;5882;48.818;9.114;2022-10-16T07:28:56;1.40;;;1.30;;
11651;SDS011;5882;48.818;9.114;2022-10-16T07:31:23;3.08;;;1.40;;
11651;SDS011;5882;48.818;9.114;2022-10-16T07:33:50;1.58;;;1.48;;
11651;SDS011;5882;48.818;9.114;2022-10-16T07:36:17;1.58;;;1.38;;
11651;SDS011;5882;48.818;9.114;2022-10-16T07:38:44;1.65;;;1.20;;
11651;SDS011;5882;48.818;9.114;2022-10-16T07:41:11;1.27;;;1.20;;
11651;SDS011;5882;48.818;9.114;2022-10-16T07:43:45;1.30;;;1.20;;
11651;SDS011;5882;48.818;9.114;2022-10-16T07:46:13;1.60;;;1.50;;
11651;SDS011;5882;48.818;9.114;2022-10-16T07:48:40;1.40;;;1.30;;
11651;SDS011;5882;48.818;9.114;2022-10-16T07:51:10;1.50;;;1.40;;
11651;SDS011;5882;48.818;9.114;2022-10-16T07:53:37;1.30;;;1.20;;
11651;SDS011;5882;48.818;9.114;2022-10-16T07:56:04;1.30;;;1.17;;
11651;SDS011;5882;48.818;9.114;2022-10-16T07:58:32;1.40;;;0.93;;
11651;SDS011;5882;48.818;9.114;2022-10-16T08:00:59;1.40;;;1.30;;
11651;SDS011;5882;48.818;9.114;2022-10-16T08:03:30;1.58;;;1.25;;
11651;SDS011;5882;48.818;9.114;2022-10-16T08:05:56;2.47;;;1.25;;
11651;SDS011;5882;48.818;9.114;2022-10-16T08:08:23;1.40;;;1.30;;
11651;SDS011;5882;48.818;9.114;2022-10-16T08:10:50;1.33;;;1.23;;
11651;SDS011;5882;48.818;9.114;2022-10-16T08:13:16;1.65;;;1.55;;
11651;SDS011;5882;48.818;9.114;2022-10-16T08:15:43;1.70;;;1.60;;
11651;SDS011;5882;48.818;9.114;2022-10-16T08:18:10;1.60;;;1.50;;
11651;SDS011;5882;48.818;9.114;2022-10-16T08:20:39;1.30;;;1.20;;
11651;SDS011;5882;48.818;9.114;2022-10-16T08:23:09;1.48;;;1.25;;
11651;SDS011;5882;48.818;9.114;2022-10-16T08:25:36;1.15;;;1.10;;
11651;SDS011;5882;48.818;9.114;2022-10-16T08:28:03;1.27;;;1.17;;
11651;SDS011;5882;48.818;9.114;2022-10-16T08:30:30;1.08;;;1.08;;
11651;SDS011;5882;48.818;9.114;2022-10-16T08:32:57;1.38;;;1.27;;
11651;SDS011;5882;48.818;9.114;2022-10-16T08:35:24;1.33;;;1.23;;
11651;SDS011;5882;48.818;9.114;2022-10-16T08:37:52;1.30;;;1.20;;
11651;SDS011;5882;48.818;9.114;2022-10-16T08:40:19;1.08;;;1.08;;
11651;SDS011;5882;48.818;9.114;2022-10-16T08:42:56;1.10;;;1.10;;
11651;SDS011;5882;48.818;9.114;2022-10-16T08:45:27;1.05;;;1.02;;
11651;SDS011;5882;48.818;9.114;2022-10-16T08:48:00;1.20;;;1.10;;
11651;SDS011;5882;48.818;9.114;2022-10-16T08:50:31;1.40;;;1.30;;
11651;SDS011;5882;48.818;9.114;2022-10-16T08:52:59;1.20;;;1.10;;
11651;SDS011;5882;48.818;9.114;2022-10-16T08:55:30;1.42;;;1.30;;
11651;SDS011;5882;48.818;9.114;2022-10-16T08:57:58;1.40;;;1.30;;
11651;SDS011;5882;48.818;9.114;2022-10-16T09:00:25;1.10;;;1.10;;
11651;SDS011;5882;48.818;9.114;2022-10-16T09:02:52;1.00;;;1.00;;
11651;SDS011;5882;48.818;9.114;2022-10-16T09:05:26;1.23;;;1.13;;
11651;SDS011;5882;48.818;9.114;2022-10-16T09:07:58;1.00;;;1.00;;
11651;SDS011;5882;48.818;9.114;2022-10-16T09:10:33;1.10;;;1.10;;
11651;SDS011;5882;48.818;9.114;2022-10-16T09:13:07;1.30;;;1.20;;
11651;SDS011;5882;48.818;9.114;2022-10-16T09:15:36;1.00;;;1.00;;
11651;SDS011;5882;48.818;9.114;2022-10-16T09:18:06;1.23;;;1.13;;
11651;SDS011;5882;48.818;9.114;2022-10-16T09:20:38;1.20;;;1.10;;
11651;SDS011;5882;48.818;9.114;2022-10-16T09:23:12;0.82;;;0.82;;
11651;SDS011;5882;48.818;9.114;2022-10-16T09:25:42;0.98;;;0.98;;
11651;SDS011;5882;48.818;9.114;2022-10-16T09:28:09;1.13;;;1.13;;
11651;SDS011;5882;48.818;9.114;2022-10-16T09:30:36;1.20;;;1.10;;
11651;SDS011;5882;48.818;9.114;2022-10-16T09:33:03;1.52;;;1.08;;
11651;SDS011;5882;48.818;9.114;2022-10-16T09:35:31;1.20;;;1.10;;
11651;SDS011;5882;48.818;9.114;2022-10-16T09:37:59;1.33;;;1.23;;
11651;SDS011;5882;48.818;9.114;2022-10-16T09:40:26;1.63;;;1.20;;
11651;SDS011;5882;48.818;9.114;2022-10-16T09:42:57;1.30;;;1.23;;
11651;SDS011;5882;48.818;9.114;2022-10-16T09:45:24;1.00;;;1.00;;
11651;SDS011;5882;48.818;9.114;2022-10-16T09:47:51;1.27;;;1.10;;
11651;SDS011;5882;48.818;9.114;2022-10-16T09:50:22;1.08;;;1.08;;
11651;SDS011;5882;48.818;9.114;2022-10-16T09:52:49;1.02;;;1.02;;
11651;SDS011;5882;48.818;9.114;2022-10-16T09:55:16;1.67;;;1.20;;
11651;SDS011;5882;48.818;9.114;2022-10-16T09:57:48;0.90;;;0.90;;
11651;SDS011;5882;48.818;9.114;2022-10-16T10:00:16;1.58;;;1.40;;
11651;SDS011;5882;48.818;9.114;2022-10-16T10:02:43;1.38;;;1.27;;
11651;SDS011;5882;48.818;9.114;2022-10-16T10:05:17;1.05;;;1.05;;
11651;SDS011;5882;48.818;9.114;2022-10-16T10:07:44;1.20;;;1.10;;
11651;SDS011;5882;48.818;9.114;2022-10-16T10:10:18;1.20;;;1.20;;
11651;SDS011;5882;48.818;9.114;2022-10-16T10:12:48;1.30;;;1.20;;
11651;SDS011;5882;48.818;9.114;2022-10-16T10:15:16;1.35;;;1.15;;
11651;SDS011;5882;48.818;9.114;2022-10-16T10:17:46;1.23;;;1.13;;
11651;SDS011;5882;48.818;9.114;2022-10-16T10:20:15;1.42;;;1.33;;
11651;SDS011;5882;48.818;9.114;2022-10-16T10:22:47;1.42;;;1.20;;
11651;SDS011;5882;48.818;9.114;2022-10-16T10:25:23;1.00;;;1.00;;
11651;SDS011;5882;48.818;9.114;2022-10-16T10:27:56;1.00;;;1.00;;
11651;SDS011;5882;48.818;9.114;2022-10-16T10:30:29;1.08;;;1.00;;
11651;SDS011;5882;48.818;9.114;2022-10-16T10:33:06;2.38;;;1.10;;
11651;SDS011;5882;48.818;9.114;2022-10-16T10:35:36;1.20;;;1.10;;
11651;SDS011;5882;48.818;9.114;2022-10-16T10:38:07;1.10;;;1.10;;
11651;SDS011;5882;48.818;9.114;2022-10-16T10:40:41;1.27;;;1.20;;
11651;SDS011;5882;48.818;9.114;2022-10-16T10:43:12;1.10;;;1.10;;
11651;SDS011;5882;48.818;9.114;2022-10-16T10:45:45;3.70;;;1.17;;
11651;SDS011;5882;48.818;9.114;2022-10-16T10:48:16;1.40;;;1.30;;
11651;SDS011;5882;48.818;9.114;2022-10-16T10:50:45;1.00;;;1.00;;
11651;SDS011;5882;48.818;9.114;2022-10-16T10:53:18;1.00;;;1.00;;
11651;SDS011;5882;48.818;9.114;2022-10-16T10:55:48;1.10;;;1.10;;
11651;SDS011;5882;48.818;9.114;2022-10-16T10:58:22;1.30;;;1.20;;
11651;SDS011;5882;48.818;9.114;2022-10-16T11:00:55;1.13;;;1.08;;
11651;SDS011;5882;48.818;9.114;2022-10-16T11:03:28;1.50;;;1.17;;
11651;SDS011;5882;48.818;9.114;2022-10-16T11:05:58;1.02;;;1.02;;
11651;SDS011;5882;48.818;9.114;2022-10-16T11:08:26;1.27;;;1.17;;
11651;SDS011;5882;48.818;9.114;2022-10-16T11:10:56;1.15;;;1.10;;
11651;SDS011;5882;48.818;9.114;2022-10-16T11:13:26;1.38;;;1.27;;
11651;SDS011;5882;48.818;9.114;2022-10-16T11:15:57;1.33;;;1.23;;
11651;SDS011;5882;48.818;9.114;2022-10-16T11:18:25;1.63;;;1.15;;
11651;SDS011;5882;48.818;9.114;2022-10-16T11:20:54;1.63;;;1.20;;
11651;SDS011;5882;48.818;9.114;2022-10-16T11:23:23;1.30;;;1.20;;
11651;SDS011;5882;48.818;9.114;2022-10-16T11:25:51;1.30;;;1.20;;
11651;SDS011;5882;48.818;9.114;2022-10-16T11:28:19;1.27;;;1.17;;
11651;SDS011;5882;48.818;9.114;2022-10-16T11:30:48;1.48;;;1.38;;
11651;SDS011;5882;48.818;9.114;2022-10-16T11:33:27;1.27;;;1.27;;
11651;SDS011;5882;48.818;9.114;2022-10-16T11:35:58;1.27;;;1.17;;
11651;SDS011;5882;48.818;9.114;2022-10-16T11:38:27;1.35;;;1.25;;
11651;SDS011;5882;48.818;9.114;2022-10-16T11:40:56;2.15;;;1.90;;
11651;SDS011;5882;48.818;9.114;2022-10-16T11:43:26;1.40;;;1.27;;
11651;SDS011;5882;48.818;9.114;2022-10-16T11:45:55;1.38;;;1.27;;
11651;SDS011;5882;48.818;9.114;2022-10-16T11:48:24;1.38;;;1.27;;
11651;SDS011;5882;48.818;9.114;2022-10-16T11:50:58;1.33;;;1.23;;
11651;SDS011;5882;48.818;9.114;2022-10-16T11:53:31;1.40;;;1.30;;
11651;SDS011;5882;48.818;9.114;2022-10-16T11:56:01;4.53;;;4.13;;
11651;SDS011;5882;48.818;9.114;2022-10-16T11:58:28;5.68;;;4.65;;
11651;SDS011;5882;48.818;9.114;2022-10-16T12:00:59;3.95;;;3.25;;
11651;SDS011;5882;48.818;9.114;2022-10-16T12:03:27;1.70;;;1.60;;
11651;SDS011;5882;48.818;9.114;2022-10-16T12:05:58;1.30;;;1.20;;
11651;SDS011;5882;48.818;9.114;2022-10-16T12:08:28;1.15;;;1.15;;
11651;SDS011;5882;48.818;9.114;2022-10-16T12:11:05;1.20;;;1.10;;
11651;SDS011;5882;48.818;9.114;2022-10-16T12:13:35;1.27;;;1.17;;
11651;SDS011;5882;48.818;9.114;2022-10-16T12:16:06;1.00;;;1.00;;
11651;SDS011;5882;48.818;9.114;2022-10-16T12:18:33;1.00;;;1.00;;
11651;SDS011;5882;48.818;9.114;2022-10-16T12:21:01;1.33;;;1.23;;
11651;SDS011;5882;48.818;9.114;2022-10-16T12:23:31;0.98;;;0.98;;
11651;SDS011;5882;48.818;9.114;2022-10-16T12:25:58;1.30;;;1.20;;
11651;SDS011;5882;48.818;9.114;2022-10-16T12:28:26;1.08;;;1.08;;
11651;SDS011;5882;48.818;9.114;2022-10-16T12:30:54;1.30;;;1.20;;
11651;SDS011;5882;48.818;9.114;2022-10-16T12:33:21;1.17;;;1.10;;
11651;SDS011;5882;48.818;9.114;2022-10-16T12:35:48;2.38;;;1.13;;
11651;SDS011;5882;48.818;9.114;2022-10-16T12:38:17;1.40;;;1.30;;
11651;SDS011;5882;48.818;9.114;2022-10-16T12:40:44;1.10;;;1.10;;
11651;SDS011;5882;48.818;9.114;2022-10-16T12:43:23;1.52;;;1.42;;
11651;SDS011;5882;48.818;9.114;2022-10-16T12:45:58;1.40;;;1.30;;
11651;SDS011;5882;48.818;9.114;2022-10-16T12:48:25;1.00;;;1.00;;
11651;SDS011;5882;48.818;9.114;2022-10-16T12:50:51;1.00;;;1.00;;
11651;SDS011;5882;48.818;9.114;2022-10-16T12:53:20;1.00;;;1.00;;
11651;SDS011;5882;48.818;9.114;2022-10-16T12:55:50;1.42;;;1.33;;
11651;SDS011;5882;48.818;9.114;2022-10-16T12:58:32;1.40;;;1.30;;
11651;SDS011;5882;48.818;9.114;2022-10-16T13:01:03;1.30;;;1.20;;
11651;SDS011;5882;48.818;9.114;2022-10-16T13:03:37;1.50;;;1.40;;
11651;SDS011;5882;48.818;9.114;2022-10-16T13:06:10;1.20;;;1.10;;
11651;SDS011;5882;48.818;9.114;2022-10-16T13:08:43;1.10;;;1.10;;
11651;SDS011;5882;48.818;9.114;2022-10-16T13:11:17;1.27;;;1.20;;
11651;SDS011;5882;48.818;9.114;2022-10-16T13:13:50;1.38;;;1.27;;
11651;SDS011;5882;48.818;9.114;2022-10-16T13:16:19;1.30;;;1.30;;
11651;SDS011;5882;48.818;9.114;2022-10-16T13:18:52;1.75;;;1.40;;
11651;SDS011;5882;48.818;9.114;2022-10-16T13:21:25;1.25;;;1.23;;
11651;SDS011;5882;48.818;9.114;2022-10-16T13:23:59;1.50;;;1.40;;
11651;SDS011;5882;48.818;9.114;2022-10-16T13:26:31;1.30;;;1.20;;
11651;SDS011;5882;48.818;9.114;2022-10-16T13:29:00;1.20;;;1.13;;
11651;SDS011;5882;48.818;9.114;2022-10-16T13:31:27;1.30;;;1.20;;
11651;SDS011;5882;48.818;9.114;2022-10-16T13:33:55;1.25;;;1.25;;
11651;SDS011;5882;48.818;9.114;2022-10-16T13:36:24;1.35;;;1.25;;
11651;SDS011;5882;48.818;9.114;2022-10-16T13:39:07;1.40;;;1.30;;
11651;SDS011;5882;48.818;9.114;2022-10-16T13:41:36;1.02;;;1.02;;
11651;SDS011;5882;48.818;9.114;2022-10-16T13:44:03;1.10;;;1.10;;
11651;SDS011;5882;48.818;9.114;2022-10-16T13:46:30;1.33;;;1.25;;
11651;SDS011;5882;48.818;9.114;2022-10-16T13:49:00;1.30;;;1.20;;
11651;SDS011;5882;48.818;9.114;2022-10-16T13:51:26;2.92;;;1.50;;
11651;SDS011;5882;48.818;9.114;2022-10-16T13:53:54;1.45;;;1.30;;
11651;SDS011;5882;48.818;9.114;2022-10-16T13:56:24;1.60;;;1.50;;
11651;SDS011;5882;48.818;9.114;2022-10-16T13:58:58;1.40;;;1.30;;
11651;SDS011;5882;48.818;9.114;2022-10-16T14:01:26;1.20;;;1.10;;
11651;SDS011;5882;48.818;9.114;2022-10-16T14:03:59;1.25;;;1.15;;
11651;SDS011;5882;48.818;9.114;2022-10-16T14:06:27;1.20;;;1.20;;
11651;SDS011;5882;48.818;9.114;2022-10-16T14:08:54;1.25;;;1.17;;
11651;SDS011;5882;48.818;9.114;2022-10-16T14:11:24;1.50;;;1.40;;
11651;SDS011;5882;48.818;9.114;2022-10-16T14:13:51;1.35;;;1.25;;
11651;SDS011;5882;48.818;9.114;2022-10-16T14:16:18;1.35;;;1.25;;
11651;SDS011;5882;48.818;9.114;2022-10-16T14:18:46;1.35;;;1.25;;
11651;SDS011;5882;48.818;9.114;2022-10-16T14:21:17;1.50;;;1.40;;
11651;SDS011;5882;48.818;9.114;2022-10-16T14:23:44;1.50;;;1.27;;
11651;SDS011;5882;48.818;9.114;2022-10-16T14:26:12;1.45;;;1.35;;
11651;SDS011;5882;48.818;9.114;2022-10-16T14:28:40;1.50;;;1.40;;
11651;SDS011;5882;48.818;9.114;2022-10-16T14:33:55;1.33;;;1.33;;
11651;SDS011;5882;48.818;9.114;2022-10-16T14:36:22;1.45;;;1.35;;
11651;SDS011;5882;48.818;9.114;2022-10-16T14:38:49;1.33;;;1.30;;
11651;SDS011;5882;48.818;9.114;2022-10-16T14:41:19;1.33;;;1.30;;
11651;SDS011;5882;48.818;9.114;2022-10-16T14:43:49;1.90;;;1.20;;
11651;SDS011;5882;48.818;9.114;2022-10-16T14:46:16;1.50;;;1.40;;
11651;SDS011;5882;48.818;9.114;2022-10-16T14:48:44;1.83;;;1.50;;
11651;SDS011;5882;48.818;9.114;2022-10-16T14:51:12;1.40;;;1.30;;
11651;SDS011;5882;48.818;9.114;2022-10-16T14:53:39;1.42;;;1.30;;
11651;SDS011;5882;48.818;9.114;2022-10-16T14:56:06;1.63;;;1.52;;
11651;SDS011;5882;48.818;9.114;2022-10-16T14:58:33;3.88;;;1.88;;
11651;SDS011;5882;48.818;9.114;2022-10-16T15:01:02;1.60;;;1.50;;
11651;SDS011;5882;48.818;9.114;2022-10-16T15:03:32;1.27;;;1.25;;
11651;SDS011;5882;48.818;9.114;2022-10-16T15:05:58;1.40;;;1.30;;
11651;SDS011;5882;48.818;9.114;2022-10-16T15:08:25;1.60;;;1.50;;
11651;SDS011;5882;48.818;9.114;2022-10-16T15:10:51;1.48;;;1.38;;